USNS Charlton — NJTC — position and weather

sailwx.info

Track history (hours):
 
Tides and Currents Weather Stations Pressure Air Temp Water Temp Dewpoint Dewpoint Depression Visibility Wind Speed Wind Dir Waves Ship Positions

USNS Charlton

Last reported at 2017-Dec-14 16:24 UTC. Time now 2018-Jan-18 20:07 UTC.
Position N 09°11' W 079°52'.
Warning: this ship's position is 35 days out of date.

; draft 8.3 m.

Type: Military. MMSI: 338902000.

Date/timePositionNaut miles runAvg speedWind from/ knotsBaromVisibWave heightAir tempDewpointWater temp
2017-Dec-14 16:24N 09°11' W 079°52'511.8
2017-Dec-14 16:00N 09°14' W 079°55'2 2.1
2017-Dec-14 15:00N 09°16' W 079°55'0 0.4
2017-Dec-14 14:28N 09°17' W 079°55'0 0.3
2017-Dec-14 14:00N 09°17' W 079°55'0 0.5
2017-Dec-14 13:28N 09°17' W 079°55'1 1.5
2017-Dec-14 12:57N 09°18' W 079°55'2 4.4
2017-Dec-14 12:30N 09°20' W 079°55'3 6.2
2017-Dec-14 12:00N 09°23' W 079°55'3 7.0
2017-Dec-14 11:31N 09°26' W 079°56'0 0.3
2017-Dec-14 11:00N 09°26' W 079°56'0 0.1
2017-Dec-14 10:30N 09°26' W 079°56'0 0.0
2017-Dec-14 10:00N 09°26' W 079°56'0 0.0
2017-Dec-14 09:30N 09°26' W 079°56'0 0.0
2017-Dec-14 09:00N 09°26' W 079°56'0 0.0
2017-Dec-14 08:30N 09°26' W 079°56'0 0.1
2017-Dec-14 08:00N 09°26' W 079°56'1 1.7
2017-Dec-14 07:30N 09°27' W 079°55'3 5.9
2017-Dec-14 07:00N 09°30' W 079°54'  
Track history (hours):
 
Tides and Currents Weather Stations Pressure Air Temp Water Temp Dewpoint Dewpoint Depression Visibility Wind Speed Wind Dir Waves Ship Positions

USNS Charlton

Last reported at 2017-Dec-14 16:24 UTC. Time now 2018-Jan-18 20:07 UTC.
Position N 09°11' W 079°52'.
Warning: this ship's position is 35 days out of date.

; draft 8.3 m.

Type: Military. MMSI: 338902000.

Date/timePositionNaut miles runAvg speedWind from/ knotsBaromVisibWave heightAir tempDewpointWater temp
2017-Dec-14 16:24N 09°11' W 079°52'511.8
2017-Dec-14 16:00N 09°14' W 079°55'2 2.1
2017-Dec-14 15:00N 09°16' W 079°55'0 0.4
2017-Dec-14 14:28N 09°17' W 079°55'0 0.3
2017-Dec-14 14:00N 09°17' W 079°55'0 0.5
2017-Dec-14 13:28N 09°17' W 079°55'1 1.5
2017-Dec-14 12:57N 09°18' W 079°55'2 4.4
2017-Dec-14 12:30N 09°20' W 079°55'3 6.2
2017-Dec-14 12:00N 09°23' W 079°55'3 7.0
2017-Dec-14 11:31N 09°26' W 079°56'0 0.3
2017-Dec-14 11:00N 09°26' W 079°56'0 0.1
2017-Dec-14 10:30N 09°26' W 079°56'0 0.0
2017-Dec-14 10:00N 09°26' W 079°56'0 0.0
2017-Dec-14 09:30N 09°26' W 079°56'0 0.0
2017-Dec-14 09:00N 09°26' W 079°56'0 0.0
2017-Dec-14 08:30N 09°26' W 079°56'0 0.1
2017-Dec-14 08:00N 09°26' W 079°56'1 1.7
2017-Dec-14 07:30N 09°27' W 079°55'3 5.9
2017-Dec-14 07:00N 09°30' W 079°54'  

Dump ship's entire track history